Terminal Aerodrome Forecast
Issued by NWS Charleston, WV

Current Version | Previous Version | Graphics & Text | Print | Product List | Glossary On
Versions: 1 2 3 4 5 6 7 8 9 10 11 12 13 14 15 16 17 18 19 20
000
FTUS41 KRLX 160200 AAA
TAFCRW
TAF AMD
KCRW 160211Z 1602/1624 30009KT P6SM BKN045
     FM160400 34005KT P6SM SCT045
     FM160600 00000KT P6SM SKC
     FM161600 06004KT P6SM SKC=

USA.gov is the U.S. government's official web portal to all federal, state and local government web resources and services.